Time;durP1;ratioP1;P1;durP2;ratioP2;P2;SDS_P1;SDS_P2;PMS_P1;PMS_P2;Temp;Humidity;BMP_temperature;BMP_pressure;BME280_temperature;BME280_humidity;BME280_pressure;Samples;Min_cycle;Max_cycle;Signal;HPM_P1;HPM_P2
2022/12/15 00:39:39;;;;;;;1.50;1.40;;;;;;;3.44;61.01;98895.81;4392819;32;33993;-87
2022/12/15 00:42:10;;;;;;;1.98;1.87;;;;;;;3.62;60.69;98913.53;4372705;32;32908;-86
2022/12/15 00:44:37;;;;;;;3.15;1.42;;;;;;;3.94;59.74;98919.50;4371793;32;32400;-86
2022/12/15 00:47:05;;;;;;;0.40;0.40;;;;;;;3.66;60.58;98916.91;4390478;32;33754;-86
2022/12/15 01:20:19;;;;;;;1.48;1.40;;;;;;;4.12;59.68;98911.09;4390204;32;34009;-87
2022/12/15 01:22:49;;;;;;;0.68;0.68;;;;;;;4.36;58.59;98906.84;4371120;32;33142;-87
2022/12/15 01:25:18;;;;;;;6.53;1.65;;;;;;;3.78;60.04;98912.16;4382494;32;33630;-87
2022/12/15 01:27:48;;;;;;;1.87;1.75;;;;;;;3.85;60.34;98905.84;4395215;32;33768;-87
2022/12/15 01:30:19;;;;;;;1.33;1.33;;;;;;;3.93;60.34;98907.38;4383630;32;33907;-89
2022/12/15 01:32:47;;;;;;;1.87;1.73;;;;;;;3.80;60.58;98905.16;4386998;32;33302;-89
2022/12/15 01:35:16;;;;;;;2.25;2.10;;;;;;;3.87;60.73;98902.34;4388354;32;33778;-88
2022/12/15 01:37:44;;;;;;;1.52;1.42;;;;;;;3.82;60.78;98905.94;4384690;32;32562;-89
2022/12/15 01:43:14;;;;;;;0.75;0.75;;;;;;;3.87;60.63;98908.41;4378066;32;34008;-85
2022/12/15 01:45:49;;;;;;;1.55;1.48;;;;;;;4.05;60.05;98901.78;4378821;32;33872;-86
2022/12/15 01:48:41;;;;;;;1.12;1.12;;;;;;;4.04;60.26;98894.84;4388084;32;32341;-86
2022/12/15 01:51:17;;;;;;;0.95;0.95;;;;;;;4.07;60.12;98895.56;4396167;32;33263;-87
2022/12/15 01:53:52;;;;;;;1.30;0.93;;;;;;;4.11;60.03;98901.56;4391847;32;32654;-87
2022/12/15 01:56:22;;;;;;;1.65;1.60;;;;;;;4.00;60.42;98907.12;4400376;32;34191;-87
2022/12/15 01:58:54;;;;;;;1.50;1.40;;;;;;;4.23;59.79;98901.19;4407945;32;33243;-87
2022/12/15 02:01:22;;;;;;;3.25;2.28;;;;;;;4.24;59.51;98907.25;4397416;32;33365;-88
2022/12/15 02:03:51;;;;;;;2.03;1.92;;;;;;;4.36;58.95;98902.47;4409753;32;32693;-87
2022/12/15 02:06:21;;;;;;;1.15;1.15;;;;;;;3.96;60.35;98915.97;4401052;32;33507;-87
2022/12/15 02:08:51;;;;;;;0.90;0.90;;;;;;;4.02;60.23;98907.09;4396350;32;32544;-87
2022/12/15 02:11:35;;;;;;;1.45;0.85;;;;;;;4.00;60.51;98901.06;4372346;32;33135;-86
2022/12/15 02:14:09;;;;;;;0.30;0.30;;;;;;;4.20;60.11;98900.44;4395815;32;32869;-87
2022/12/15 02:16:52;;;;;;;1.27;1.23;;;;;;;4.30;59.62;98905.28;4406264;32;36489;-86
2022/12/15 02:19:40;;;;;;;0.82;0.82;;;;;;;4.25;59.94;98919.41;4395497;32;31060;-86
2022/12/15 02:22:20;;;;;;;3.65;2.50;;;;;;;4.26;59.77;98921.97;4388703;32;32296;-85
2022/12/15 02:25:16;;;;;;;0.90;0.90;;;;;;;4.21;60.04;98923.03;4394116;32;35443;-85
2022/12/15 02:27:54;;;;;;;0.90;0.90;;;;;;;4.33;59.73;98927.88;4392089;32;33724;-84
2022/12/15 02:30:37;;;;;;;0.75;0.73;;;;;;;4.24;59.94;98918.56;4380639;32;33233;-84
2022/12/15 02:33:25;;;;;;;0.25;0.25;;;;;;;4.24;60.11;98920.31;4388510;32;32792;-84
2022/12/15 02:35:53;;;;;;;0.45;0.45;;;;;;;4.31;59.90;98914.84;4392132;32;33423;-85
2022/12/15 02:38:29;;;;;;;2.95;2.75;;;;;;;4.32;59.80;98916.56;4389617;32;33626;-85
2022/12/15 02:41:01;;;;;;;0.90;0.90;;;;;;;4.26;60.03;98911.53;4388258;32;32770;-85
2022/12/15 02:43:33;;;;;;;1.12;1.10;;;;;;;4.36;59.70;98910.31;4380904;32;33065;-84
2022/12/15 02:46:26;;;;;;;1.65;1.55;;;;;;;4.31;59.99;98912.22;4374353;32;32595;-85
2022/12/15 02:48:59;;;;;;;0.68;0.68;;;;;;;4.29;59.98;98911.44;4388143;32;33911;-85
2022/12/15 02:51:56;;;;;;;1.70;1.60;;;;;;;4.26;60.05;98914.13;4391870;32;32732;-85
2022/12/15 02:55:00;;;;;;;0.50;0.50;;;;;;;4.32;59.79;98929.62;4389850;32;32567;-85
2022/12/15 02:57:43;;;;;;;2.08;1.98;;;;;;;4.34;59.73;98922.59;4347875;32;32832;-85
2022/12/15 03:00:12;;;;;;;0.68;0.68;;;;;;;4.27;60.04;98912.38;4384184;32;33820;-84
2022/12/15 03:02:52;;;;;;;4.45;2.75;;;;;;;4.40;59.79;98918.06;4382704;32;33332;-84
2022/12/15 03:05:22;;;;;;;1.65;1.55;;;;;;;4.24;60.10;98913.34;4372366;32;32661;-84
2022/12/15 03:07:51;;;;;;;33.13;5.05;;;;;;;4.25;60.21;98916.81;4380490;32;32432;-85
2022/12/15 03:10:22;;;;;;;2.83;2.62;;;;;;;4.36;59.99;98920.75;4407837;32;33724;-85
2022/12/15 03:12:51;;;;;;;0.35;0.35;;;;;;;4.37;59.93;98919.88;4404050;32;32601;-86
2022/12/15 03:15:18;;;;;;;2.42;2.12;;;;;;;4.32;60.02;98927.03;4406732;32;34559;-86
2022/12/15 03:17:47;;;;;;;3.45;3.15;;;;;;;4.34;59.92;98925.19;4400086;32;34717;-86
2022/12/15 03:20:15;;;;;;;1.95;1.67;;;;;;;4.51;59.47;98923.78;4403154;32;33365;-86
2022/12/15 03:22:43;;;;;;;1.50;1.40;;;;;;;4.56;58.83;98914.91;4410841;32;33596;-85
2022/12/15 03:25:11;;;;;;;1.20;0.45;;;;;;;4.40;59.48;98920.69;4412070;32;33027;-86
2022/12/15 03:27:40;;;;;;;0.60;0.60;;;;;;;4.36;59.45;98925.13;4403193;32;32752;-85
2022/12/15 03:30:08;;;;;;;1.70;0.77;;;;;;;4.44;59.13;98920.53;4399161;32;32360;-86
2022/12/15 03:32:37;;;;;;;5.50;2.00;;;;;;;4.41;59.06;98932.84;4396747;32;34480;-86
2022/12/15 03:35:05;;;;;;;0.75;0.73;;;;;;;4.34;59.01;98933.03;4412594;32;33700;-84
2022/12/15 03:37:33;;;;;;;2.78;1.37;;;;;;;4.23;59.07;98932.53;4403591;32;34152;-85
2022/12/15 03:40:01;;;;;;;3.33;2.85;;;;;;;4.26;59.04;98934.19;4400108;32;33871;-86
2022/12/15 03:42:49;;;;;;;1.37;1.27;;;;;;;4.27;58.89;98933.28;4399298;32;34241;-86
2022/12/15 03:45:23;;;;;;;1.60;1.45;;;;;;;4.23;58.85;98929.06;4381716;32;32484;-85
2022/12/15 03:47:53;;;;;;;1.42;1.37;;;;;;;4.19;58.82;98920.47;4382309;32;33711;-87
2022/12/15 03:50:23;;;;;;;2.87;1.50;;;;;;;4.11;58.81;98933.78;4381637;32;32945;-86
2022/12/15 03:53:02;;;;;;;2.15;1.98;;;;;;;4.10;58.73;98926.84;4398548;32;33897;-87
2022/12/15 03:55:30;;;;;;;1.83;1.73;;;;;;;4.00;59.03;98940.25;4394771;32;34577;-87
2022/12/15 03:57:58;;;;;;;0.90;0.90;;;;;;;4.00;59.05;98948.06;4413035;32;33929;-87
2022/12/15 04:00:28;;;;;;;8.85;3.72;;;;;;;3.95;59.14;98942.16;4404577;32;33904;-87
2022/12/15 04:03:01;;;;;;;1.05;1.02;;;;;;;3.92;59.01;98940.47;4411003;32;32405;-87
2022/12/15 04:05:32;;;;;;;1.83;1.45;;;;;;;3.81;59.34;98940.78;4410212;32;33831;-88
2022/12/15 04:08:01;;;;;;;1.37;1.33;;;;;;;3.89;59.13;98944.91;4388677;32;33389;-88
2022/12/15 04:10:31;;;;;;;0.43;0.43;;;;;;;3.74;59.59;98949.69;4404386;32;33602;-87
2022/12/15 04:13:05;;;;;;;0.65;0.17;;;;;;;3.68;59.80;98960.34;4404586;32;34240;-87
2022/12/15 04:15:34;;;;;;;3.72;2.37;;;;;;;3.82;59.47;98958.16;4385068;32;33798;-86
2022/12/15 04:18:08;;;;;;;2.10;1.95;;;;;;;3.82;59.45;98963.38;4407477;32;33323;-86
2022/12/15 04:20:38;;;;;;;0.43;0.43;;;;;;;3.81;59.55;98972.13;4409398;32;34006;-87
2022/12/15 04:23:07;;;;;;;2.08;1.92;;;;;;;3.71;60.06;98978.53;4399056;32;32764;-87
2022/12/15 05:33:10;;;;;;;3.10;1.25;;;;;;;3.52;61.13;99068.69;4403327;32;33475;-84
2022/12/15 05:35:40;;;;;;;3.33;3.12;;;;;;;3.44;61.58;99081.94;4410096;32;33393;-84
2022/12/15 05:38:10;;;;;;;7.70;3.95;;;;;;;3.28;62.16;99076.28;4405471;32;32880;-84
2022/12/15 05:40:38;;;;;;;1.45;1.35;;;;;;;3.69;60.94;99073.44;4406404;32;33305;-85
2022/12/15 05:43:07;;;;;;;2.70;2.25;;;;;;;3.75;60.79;99076.75;4409970;32;34167;-85
2022/12/15 05:45:37;;;;;;;2.28;2.15;;;;;;;3.65;61.12;99082.25;4406538;32;34295;-86
2022/12/15 05:48:05;;;;;;;1.75;1.65;;;;;;;3.69;61.16;99092.56;4406312;32;34051;-86
2022/12/15 05:50:35;;;;;;;1.35;1.35;;;;;;;3.58;61.39;99099.84;4405375;32;33534;-85
2022/12/15 05:53:05;;;;;;;0.50;0.50;;;;;;;3.52;61.44;99106.09;4405054;32;33579;-86
2022/12/15 05:55:35;;;;;;;1.02;0.75;;;;;;;3.51;61.77;99119.16;4405532;32;34869;-86
2022/12/15 05:58:04;;;;;;;1.75;1.17;;;;;;;3.73;61.26;99109.03;4405584;32;34598;-87
2022/12/15 06:00:36;;;;;;;8.60;2.05;;;;;;;4.02;60.08;99123.87;4409086;32;33465;-86
2022/12/15 06:03:06;;;;;;;2.05;1.92;;;;;;;3.71;60.50;99127.34;4408139;32;33467;-86
2022/12/15 06:05:35;;;;;;;0.40;0.40;;;;;;;3.68;61.06;99130.03;4385350;32;33663;-86
2022/12/15 06:08:05;;;;;;;1.60;1.60;;;;;;;3.60;61.43;99129.38;4411653;32;33931;-86
2022/12/15 06:10:36;;;;;;;1.05;1.02;;;;;;;3.62;61.23;99145.88;4402922;32;32400;-86
2022/12/15 06:13:09;;;;;;;5.17;2.20;;;;;;;3.63;61.28;99162.37;4408385;32;32926;-87
2022/12/15 06:15:43;;;;;;;1.77;1.67;;;;;;;3.69;61.06;99154.37;4406678;32;33699;-85
2022/12/15 06:18:12;;;;;;;0.93;0.75;;;;;;;3.63;61.41;99159.78;4381453;32;33130;-86
2022/12/15 06:20:40;;;;;;;2.50;2.30;;;;;;;3.75;61.14;99162.03;4393320;32;33101;-86
2022/12/15 06:23:22;;;;;;;3.40;1.83;;;;;;;3.50;61.81;99160.06;4409447;32;33892;-86
2022/12/15 06:25:50;;;;;;;3.65;2.00;;;;;;;3.78;61.37;99161.97;4403892;32;34707;-86
2022/12/15 06:28:22;;;;;;;0.52;0.52;;;;;;;3.67;61.44;99162.28;4409698;32;34501;-87
2022/12/15 06:30:52;;;;;;;1.90;1.80;;;;;;;3.63;61.87;99165.84;4398571;32;32518;-86
2022/12/15 06:33:25;;;;;;;2.20;2.00;;;;;;;3.67;61.82;99172.72;4406617;32;33051;-86
2022/12/15 06:36:00;;;;;;;2.28;1.95;;;;;;;3.89;61.22;99166.91;4410116;32;33788;-86
2022/12/15 06:38:41;;;;;;;;;;;;;;;4.29;59.57;99157.09;4407873;32;33862;-86
2022/12/15 06:41:14;;;;;;;0.82;0.82;;;;;;;4.36;59.33;99158.59;4398264;32;33019;-86
2022/12/15 06:43:43;;;;;;;1.12;1.05;;;;;;;4.26;59.68;99166.75;4397613;32;33085;-86
2022/12/15 06:46:11;;;;;;;0.25;0.25;;;;;;;3.45;62.31;99179.34;4410342;32;33178;-86
2022/12/15 06:48:43;;;;;;;0.90;0.90;;;;;;;3.48;62.56;99184.50;4405120;32;33366;-86
2022/12/15 06:51:13;;;;;;;3.00;2.78;;;;;;;3.36;62.72;99188.28;4409262;32;34328;-86
2022/12/15 06:53:48;;;;;;;1.48;0.68;;;;;;;3.26;63.41;99192.84;4409600;32;33973;-86
2022/12/15 06:56:19;;;;;;;2.35;2.25;;;;;;;3.66;62.47;99198.88;4398961;32;35322;-85
2022/12/15 06:59:00;;;;;;;1.60;1.45;;;;;;;3.82;61.79;99211.47;4397300;32;31831;-86
2022/12/15 07:01:37;;;;;;;3.00;2.83;;;;;;;3.40;62.89;99220.38;4402382;32;34052;-86
2022/12/15 07:04:07;;;;;;;4.07;3.65;;;;;;;3.43;63.29;99215.09;4397963;32;34129;-86
2022/12/15 07:06:37;;;;;;;1.98;1.83;;;;;;;3.36;63.88;99219.59;4411625;32;33831;-86
2022/12/15 07:09:07;;;;;;;2.55;2.42;;;;;;;3.41;63.58;99237.75;4407831;32;33558;-86
2022/12/15 07:11:36;;;;;;;2.42;2.28;;;;;;;3.68;63.19;99250.12;4396116;32;31905;-86
2022/12/15 07:14:05;;;;;;;3.22;2.72;;;;;;;3.90;62.63;99255.69;4405459;32;33542;-83
2022/12/15 07:16:37;;;;;;;7.00;3.92;;;;;;;3.91;62.41;99254.78;4407142;32;33851;-83
2022/12/15 07:19:11;;;;;;;3.78;2.85;;;;;;;3.93;62.56;99241.69;4396422;32;33694;-83
2022/12/15 07:21:40;;;;;;;1.00;0.95;;;;;;;4.35;61.07;99245.78;4406863;32;32459;-84
2022/12/15 07:24:11;;;;;;;4.18;2.10;;;;;;;4.21;61.45;99247.91;4405945;32;33524;-84
2022/12/15 07:26:44;;;;;;;1.95;1.85;;;;;;;4.33;61.21;99244.13;4395586;32;34059;-83
2022/12/15 07:29:16;;;;;;;2.65;2.50;;;;;;;4.33;61.22;99238.87;4407885;32;34567;-83
2022/12/15 07:34:27;;;;;;;3.50;2.80;;;;;;;4.27;61.32;99247.75;4406464;32;32498;-86
2022/12/15 07:36:56;;;;;;;1.95;1.85;;;;;;;4.10;61.96;99263.88;4397340;32;34382;-86
2022/12/15 07:39:27;;;;;;;1.92;1.83;;;;;;;4.21;61.76;99265.34;4409498;32;34039;-86
2022/12/15 07:41:57;;;;;;;4.18;3.87;;;;;;;4.41;61.27;99254.34;4395651;32;34304;-86
2022/12/15 07:44:26;;;;;;;0.45;0.45;;;;;;;4.27;61.62;99268.66;4405580;32;33201;-86
2022/12/15 07:46:54;;;;;;;7.65;4.55;;;;;;;4.08;62.15;99275.25;4407718;32;33694;-86
2022/12/15 07:49:24;;;;;;;2.45;1.73;;;;;;;4.43;61.15;99260.41;4405708;32;33150;-86
2022/12/15 07:51:57;;;;;;;2.28;2.17;;;;;;;4.03;62.17;99257.06;4414630;32;32950;-86
2022/12/15 07:55:08;;;;;;;2.47;1.73;;;;;;;4.24;61.50;99260.91;4399731;32;33748;-86
2022/12/15 07:57:42;;;;;;;1.95;1.85;;;;;;;4.19;61.95;99280.22;4406749;32;38037;-86
2022/12/15 08:02:49;;;;;;;5.32;1.95;;;;;;;3.80;63.64;99290.78;4409919;32;33481;-86
2022/12/15 08:05:17;;;;;;;9.40;2.65;;;;;;;3.90;63.46;99294.00;4411097;32;33573;-86
2022/12/15 08:07:45;;;;;;;5.47;2.42;;;;;;;4.31;62.36;99275.50;4411942;32;34748;-87
2022/12/15 08:10:14;;;;;;;4.45;3.97;;;;;;;4.00;63.30;99283.28;4406032;32;34024;-86
2022/12/15 08:12:50;;;;;;;4.10;3.78;;;;;;;3.96;63.80;99293.84;4406223;32;33560;-86
2022/12/15 08:15:20;;;;;;;2.78;2.12;;;;;;;3.99;63.58;99297.25;4385752;32;32636;-86
2022/12/15 08:17:50;;;;;;;3.42;3.10;;;;;;;4.20;62.92;99303.69;4411566;32;33888;-87
2022/12/15 08:20:21;;;;;;;0.65;0.65;;;;;;;4.22;62.95;99308.84;4412492;32;33117;-87
2022/12/15 08:22:59;;;;;;;3.72;3.53;;;;;;;4.57;62.04;99302.72;4409926;32;33372;-86
2022/12/15 08:25:28;;;;;;;2.25;2.10;;;;;;;4.24;63.01;99313.16;4412772;32;33690;-86
2022/12/15 08:27:56;;;;;;;0.80;0.80;;;;;;;4.62;61.66;99306.06;4398770;32;32701;-86
2022/12/15 08:30:26;;;;;;;0.82;0.82;;;;;;;4.49;61.66;99309.91;4412487;32;31932;-86
2022/12/15 08:32:55;;;;;;;2.20;1.98;;;;;;;4.27;62.66;99310.47;4411343;32;33534;-86
2022/12/15 08:35:23;;;;;;;1.50;1.45;;;;;;;4.47;62.11;99296.03;4397462;32;32779;-86
2022/12/15 08:38:13;;;;;;;3.75;3.55;;;;;;;4.42;62.15;99298.75;4388438;32;33217;-86
2022/12/15 08:40:44;;;;;;;1.52;1.52;;;;;;;4.69;61.78;99307.59;4410805;32;33878;-86
2022/12/15 08:43:12;;;;;;;2.47;2.22;;;;;;;4.68;61.20;99311.09;4412238;32;33418;-86
2022/12/15 08:45:42;;;;;;;3.22;3.10;;;;;;;4.29;62.67;99324.34;4407541;32;33548;-86
2022/12/15 08:48:10;;;;;;;2.60;2.40;;;;;;;4.36;62.73;99331.13;4408447;32;33685;-86
2022/12/15 08:50:44;;;;;;;13.85;3.42;;;;;;;4.28;63.30;99330.47;4410253;32;34218;-86
2022/12/15 08:53:13;;;;;;;2.05;1.95;;;;;;;4.38;62.85;99336.31;4402048;32;33106;-86
2022/12/15 08:56:04;;;;;;;2.95;2.33;;;;;;;4.30;63.09;99340.88;4412551;32;33081;-86
2022/12/15 08:58:34;;;;;;;5.40;3.72;;;;;;;4.84;61.12;99333.34;4411516;32;34729;-86
2022/12/15 09:01:08;;;;;;;4.97;2.65;;;;;;;4.72;61.65;99335.44;4411682;32;33839;-86
2022/12/15 09:03:36;;;;;;;2.60;2.40;;;;;;;4.57;61.80;99341.94;4398492;32;33696;-86
2022/12/15 09:06:07;;;;;;;1.48;1.45;;;;;;;4.42;62.41;99347.56;4412591;32;33162;-86
2022/12/15 09:08:35;;;;;;;0.30;0.30;;;;;;;4.64;61.82;99335.63;4409739;32;33631;-86
2022/12/15 09:11:06;;;;;;;1.62;1.52;;;;;;;4.51;62.47;99344.69;4412013;32;33832;-86
2022/12/15 09:13:35;;;;;;;2.62;2.53;;;;;;;4.57;62.48;99334.09;4412988;32;33506;-86
2022/12/15 09:16:14;;;;;;;3.15;2.95;;;;;;;4.83;61.43;99334.22;4410784;32;33607;-86
2022/12/15 09:18:46;;;;;;;7.78;2.60;;;;;;;4.79;62.14;99335.19;4412185;32;32161;-87
2022/12/15 09:21:16;;;;;;;2.25;2.15;;;;;;;4.63;62.81;99326.06;4399938;32;32932;-86
2022/12/15 09:23:50;;;;;;;1.70;1.60;;;;;;;4.83;61.71;99326.38;4407623;32;34013;-86
2022/12/15 09:26:20;;;;;;;9.43;4.25;;;;;;;4.52;62.73;99323.75;4411271;32;33184;-86
2022/12/15 09:28:49;;;;;;;4.85;3.60;;;;;;;4.46;62.81;99309.97;4409693;32;33415;-87
2022/12/15 09:31:20;;;;;;;1.70;1.60;;;;;;;4.95;61.29;99319.94;4393306;32;32963;-86
2022/12/15 09:33:52;;;;;;;1.95;1.85;;;;;;;5.34;59.86;99317.91;4410498;32;33140;-86
2022/12/15 09:36:21;;;;;;;1.55;1.42;;;;;;;5.05;60.41;99320.53;4397620;32;33671;-86
2022/12/15 09:39:00;;;;;;;3.47;3.17;;;;;;;4.26;63.35;99326.19;4410405;32;34699;-87
2022/12/15 09:41:33;;;;;;;2.35;1.48;;;;;;;4.56;62.85;99314.06;4399148;32;32607;-86
2022/12/15 09:44:10;;;;;;;1.40;1.40;;;;;;;4.68;62.15;99324.19;4382969;32;34591;-86
2022/12/15 09:47:14;;;;;;;3.25;3.10;;;;;;;4.21;63.92;99341.12;4412119;32;33992;-86
2022/12/15 09:49:52;;;;;;;1.70;1.70;;;;;;;4.29;64.19;99344.41;4406625;32;33848;-86
2022/12/15 09:52:27;;;;;;;2.65;1.52;;;;;;;4.27;64.54;99352.28;4405743;32;33911;-86
2022/12/15 09:54:57;;;;;;;1.90;1.80;;;;;;;4.68;62.87;99350.34;4398767;32;32971;-86
2022/12/15 09:57:36;;;;;;;4.75;4.40;;;;;;;4.42;63.23;99352.81;4414227;32;33698;-86
2022/12/15 10:00:20;;;;;;;1.90;1.73;;;;;;;4.45;63.45;99352.69;4407920;32;34646;-86
2022/12/15 10:02:57;;;;;;;5.65;1.92;;;;;;;4.61;62.58;99356.66;4406899;32;33260;-86
2022/12/15 10:05:29;;;;;;;3.05;2.85;;;;;;;4.56;63.03;99359.38;4406277;32;31167;-86
2022/12/15 10:08:18;;;;;;;2.22;2.12;;;;;;;4.91;62.14;99348.84;4405310;32;34017;-86
2022/12/15 10:11:00;;;;;;;2.58;2.40;;;;;;;4.94;61.70;99344.41;4398550;32;34623;-86
2022/12/15 10:13:37;;;;;;;1.95;1.45;;;;;;;5.02;61.86;99339.78;4397866;32;34349;-86
2022/12/15 10:16:38;;;;;;;1.65;1.17;;;;;;;5.17;62.14;99342.88;4406482;32;33558;-86
2022/12/15 10:19:13;;;;;;;1.70;1.60;;;;;;;4.88;62.97;99357.62;4396164;32;33352;-87
2022/12/15 10:21:46;;;;;;;2.97;2.78;;;;;;;4.93;63.29;99349.66;4397931;32;34044;-87
2022/12/15 10:24:21;;;;;;;3.45;3.25;;;;;;;5.48;61.10;99342.84;4375804;32;32227;-86
2022/12/15 10:27:17;;;;;;;2.22;2.12;;;;;;;5.14;61.79;99338.59;4387084;32;32333;-86
2022/12/15 10:29:54;;;;;;;1.85;1.75;;;;;;;4.97;62.41;99339.06;4375337;32;33011;-86
2022/12/15 10:32:54;;;;;;;2.83;2.65;;;;;;;5.02;62.56;99331.09;4388443;32;33005;-86
2022/12/15 10:35:32;;;;;;;3.37;3.10;;;;;;;5.13;62.46;99319.41;4375082;32;33648;-86
2022/12/15 10:38:05;;;;;;;3.75;2.87;;;;;;;5.29;62.19;99311.97;4375261;32;33618;-87
2022/12/15 10:40:43;;;;;;;3.40;1.75;;;;;;;5.34;61.69;99317.91;4366328;32;32568;-86
2022/12/15 10:43:26;;;;;;;1.27;1.23;;;;;;;5.19;62.17;99322.75;4387294;32;32739;-86
2022/12/15 10:46:23;;;;;;;5.13;4.33;;;;;;;5.14;62.46;99330.75;4384597;32;32467;-86
2022/12/15 10:48:58;;;;;;;;;;;;;;;5.50;61.56;99334.00;4402774;32;33308;-86
2022/12/15 10:51:31;;;;;;;1.75;1.27;;;;;;;5.57;60.94;99334.69;4366095;32;34153;-86
2022/12/15 10:54:11;;;;;;;3.45;3.15;;;;;;;5.68;60.28;99327.34;4377485;32;33774;-86
2022/12/15 10:56:53;;;;;;;4.70;3.15;;;;;;;5.44;61.29;99326.34;4363263;32;32457;-86
2022/12/15 10:59:32;;;;;;;7.78;2.75;;;;;;;5.33;62.15;99321.44;4372680;32;32958;-86
2022/12/15 11:02:19;;;;;;;3.28;2.95;;;;;;;5.04;63.16;99324.06;4383948;32;33102;-86
2022/12/15 11:05:19;;;;;;;1.52;1.52;;;;;;;4.90;63.56;99331.44;4382445;32;33437;-86
2022/12/15 11:07:54;;;;;;;1.35;1.35;;;;;;;5.13;62.99;99329.03;4389418;32;33794;-86
2022/12/15 11:10:27;;;;;;;2.30;2.15;;;;;;;5.12;63.35;99329.91;4389848;32;32886;-86
2022/12/15 11:13:18;;;;;;;6.70;4.60;;;;;;;5.16;62.59;99334.16;4392242;32;33880;-86
2022/12/15 11:15:52;;;;;;;10.43;5.22;;;;;;;5.21;63.24;99342.72;4375426;32;34383;-86
2022/12/15 11:18:38;;;;;;;0.62;0.47;;;;;;;5.40;62.78;99335.19;4375578;32;32533;-86
2022/12/15 11:21:18;;;;;;;3.20;3.00;;;;;;;5.77;61.58;99337.53;4382943;32;32417;-86
2022/12/15 11:23:56;;;;;;;2.25;2.15;;;;;;;5.85;60.69;99335.53;4387437;32;33283;-86
2022/12/15 11:26:38;;;;;;;1.33;1.15;;;;;;;5.90;60.02;99328.41;4362028;32;33040;-86
2022/12/15 11:29:22;;;;;;;4.33;3.70;;;;;;;5.79;60.66;99325.28;4392402;32;33728;-86
2022/12/15 11:31:52;;;;;;;1.83;1.73;;;;;;;5.62;61.39;99327.56;4390226;32;32748;-86
2022/12/15 11:34:42;;;;;;;7.55;6.57;;;;;;;5.44;62.55;99338.59;4380186;32;33294;-86
2022/12/15 11:37:27;;;;;;;3.15;2.83;;;;;;;5.62;61.75;99341.50;4388292;32;33693;-86
2022/12/15 11:40:38;;;;;;;2.95;2.75;;;;;;;5.80;61.19;99321.75;4362965;32;33813;-86
2022/12/15 11:43:26;;;;;;;4.40;4.03;;;;;;;5.73;61.27;99341.16;4374953;32;32671;-86
2022/12/15 11:45:58;;;;;;;3.85;3.45;;;;;;;5.69;61.32;99336.91;4377287;32;33675;-86
2022/12/15 11:48:55;;;;;;;2.62;2.40;;;;;;;5.79;61.29;99347.97;4379305;32;33733;-86
2022/12/15 11:51:48;;;;;;;2.75;2.50;;;;;;;6.15;60.38;99353.84;4375148;32;33240;-86
2022/12/15 11:54:52;;;;;;;2.10;2.00;;;;;;;5.84;61.52;99356.53;4359286;32;32285;-86
2022/12/15 11:57:29;;;;;;;7.97;7.12;;;;;;;5.94;60.90;99350.16;4386767;32;33520;-86
2022/12/15 12:00:07;;;;;;;5.43;4.70;;;;;;;5.84;61.77;99352.19;4374797;32;33625;-86
2022/12/15 12:03:11;;;;;;;6.97;4.15;;;;;;;6.13;60.96;99351.28;4368469;32;33567;-86
2022/12/15 12:06:06;;;;;;;7.95;3.65;;;;;;;6.41;60.10;99351.22;4359990;32;33149;-86
2022/12/15 12:08:53;;;;;;;4.45;4.20;;;;;;;6.22;60.49;99360.59;4381015;32;33039;-86
2022/12/15 12:12:03;;;;;;;4.15;3.95;;;;;;;5.97;61.46;99349.19;4363817;32;33510;-86
2022/12/15 12:14:35;;;;;;;5.15;4.75;;;;;;;5.78;62.44;99347.13;4381975;32;32949;-86
2022/12/15 12:17:41;;;;;;;1.52;1.50;;;;;;;6.24;60.90;99343.03;4378944;32;33417;-86
2022/12/15 12:20:21;;;;;;;5.78;3.53;;;;;;;6.23;61.25;99330.84;4350876;32;33061;-86
2022/12/15 12:26:15;;;;;;;5.00;4.28;;;;;;;6.07;61.72;99334.88;4403797;32;33574;-86
2022/12/15 12:28:51;;;;;;;4.03;3.67;;;;;;;6.37;61.20;99333.88;4394542;32;32328;-86
2022/12/15 12:31:33;;;;;;;3.60;3.15;;;;;;;6.12;61.75;99322.47;4399827;32;32798;-86
2022/12/15 12:34:20;;;;;;;3.03;2.72;;;;;;;5.98;62.29;99319.44;4411472;32;34019;-86
2022/12/15 12:36:53;;;;;;;8.23;3.28;;;;;;;6.03;62.22;99328.91;4397901;32;33859;-86
2022/12/15 12:39:25;;;;;;;5.40;3.83;;;;;;;5.94;62.72;99323.94;4386725;32;32593;-86
2022/12/15 12:42:27;;;;;;;1.30;1.15;;;;;;;6.14;62.15;99321.53;4407834;32;33463;-86
2022/12/15 12:45:00;;;;;;;1.15;1.05;;;;;;;6.19;61.95;99317.91;4404864;32;33929;-86
2022/12/15 12:47:35;;;;;;;5.78;4.90;;;;;;;6.11;62.00;99323.37;4387074;32;33664;-86
2022/12/15 12:50:14;;;;;;;1.92;1.80;;;;;;;5.98;62.81;99325.56;4383361;32;32007;-86
2022/12/15 12:52:54;;;;;;;3.95;3.65;;;;;;;6.21;62.12;99322.16;4400165;32;33286;-86
2022/12/15 12:55:39;;;;;;;3.10;2.80;;;;;;;6.31;62.19;99328.81;4408969;32;33636;-86
2022/12/15 12:58:31;;;;;;;3.75;2.83;;;;;;;6.39;62.08;99342.53;4406719;32;33024;-86
2022/12/15 13:01:19;;;;;;;9.18;5.43;;;;;;;6.35;62.21;99340.06;4400866;32;33996;-86
2022/12/15 13:04:05;;;;;;;7.12;6.55;;;;;;;6.69;60.84;99334.50;4385339;32;33087;-86
2022/12/15 13:06:34;;;;;;;3.67;3.47;;;;;;;6.23;62.23;99341.34;4407176;32;34142;-86
2022/12/15 13:09:16;;;;;;;2.85;2.65;;;;;;;6.08;63.18;99347.94;4395340;32;32606;-86
2022/12/15 13:11:47;;;;;;;4.65;4.25;;;;;;;6.43;61.98;99347.69;4389089;32;32669;-86
2022/12/15 13:14:43;;;;;;;2.40;2.22;;;;;;;6.53;61.41;99355.16;4389239;32;33890;-86
2022/12/15 13:17:34;;;;;;;8.10;4.18;;;;;;;6.22;62.14;99355.34;4397870;32;33217;-86
2022/12/15 13:20:17;;;;;;;2.40;2.30;;;;;;;6.73;60.72;99351.84;4382877;32;33615;-86
2022/12/15 13:22:51;;;;;;;5.03;4.05;;;;;;;6.31;62.16;99360.28;4402377;32;32665;-87
2022/12/15 13:25:36;;;;;;;5.72;4.68;;;;;;;6.34;62.17;99359.31;4401716;32;32743;-87
2022/12/15 13:28:26;;;;;;;9.55;4.70;;;;;;;6.40;62.05;99348.62;4403820;32;33628;-87
2022/12/15 13:31:17;;;;;;;9.25;6.55;;;;;;;6.35;61.89;99356.62;4392977;32;35469;-86
2022/12/15 13:33:54;;;;;;;;;;;;;;;5.94;63.93;99365.03;4399838;32;33048;-86
2022/12/15 13:36:39;;;;;;;3.85;3.55;;;;;;;5.88;64.09;99364.25;4383278;32;34380;-87
2022/12/15 13:39:12;;;;;;;4.40;4.10;;;;;;;5.81;64.51;99369.75;4373217;32;33674;-86
2022/12/15 13:41:50;;;;;;;5.22;4.82;;;;;;;6.05;63.53;99366.38;4383923;32;31580;-86
2022/12/15 13:44:41;;;;;;;6.50;4.40;;;;;;;6.03;63.30;99378.69;4383469;32;34160;-86
2022/12/15 13:47:24;;;;;;;6.35;5.45;;;;;;;6.06;63.25;99367.22;4348997;32;32868;-86
2022/12/15 13:50:09;;;;;;;3.15;2.95;;;;;;;6.00;63.84;99354.34;4397955;32;33388;-86
2022/12/15 13:52:48;;;;;;;3.30;3.12;;;;;;;6.04;63.33;99359.44;4385760;32;34412;-86
2022/12/15 13:55:54;;;;;;;5.37;2.47;;;;;;;6.06;63.98;99367.22;4385518;32;34151;-86
2022/12/15 13:58:43;;;;;;;2.45;2.33;;;;;;;6.21;63.35;99361.47;4397024;32;32181;-86
2022/12/15 14:01:27;;;;;;;10.18;3.87;;;;;;;6.29;63.08;99366.50;4387816;32;33400;-86
2022/12/15 14:04:17;;;;;;;2.78;2.58;;;;;;;6.33;62.95;99358.47;4396499;32;34336;-86
2022/12/15 14:07:01;;;;;;;4.12;2.90;;;;;;;6.26;63.45;99361.34;4373880;32;31134;-86
2022/12/15 14:09:37;;;;;;;5.55;3.15;;;;;;;5.86;65.00;99352.13;4377924;32;33900;-86
2022/12/15 14:12:13;;;;;;;3.78;3.58;;;;;;;6.18;64.12;99353.75;4376103;32;32531;-86
2022/12/15 14:14:49;;;;;;;3.08;2.87;;;;;;;6.24;63.95;99355.31;4387326;32;34168;-87
2022/12/15 14:17:19;;;;;;;3.22;2.97;;;;;;;6.26;63.71;99354.31;4386987;32;33740;-85
2022/12/15 14:19:56;;;;;;;4.62;4.25;;;;;;;5.91;65.01;99355.44;4398777;32;33329;-85
2022/12/15 14:22:28;;;;;;;2.67;2.53;;;;;;;6.08;64.73;99349.72;4389109;32;34073;-85
2022/12/15 14:25:13;;;;;;;12.68;5.50;;;;;;;5.84;65.70;99354.81;4385416;32;34260;-85
2022/12/15 14:28:06;;;;;;;2.60;2.40;;;;;;;6.02;65.18;99347.28;4393343;32;34088;-86
2022/12/15 14:30:51;;;;;;;5.62;5.22;;;;;;;5.70;66.39;99346.50;4382427;32;33598;-85
2022/12/15 14:33:40;;;;;;;2.60;2.40;;;;;;;5.81;65.93;99341.78;4375930;32;32914;-85
2022/12/15 14:36:15;;;;;;;1.75;1.73;;;;;;;5.62;66.61;99356.38;4395824;32;32894;-85
2022/12/15 14:38:56;;;;;;;4.80;3.35;;;;;;;5.64;66.77;99347.53;4376415;32;31615;-84
2022/12/15 14:41:31;;;;;;;5.40;4.72;;;;;;;5.64;66.72;99357.16;4395581;32;32907;-85
2022/12/15 14:44:13;;;;;;;6.97;4.40;;;;;;;5.96;65.75;99366.66;4397273;32;32608;-85
2022/12/15 14:47:26;;;;;;;2.05;1.95;;;;;;;5.67;66.61;99367.56;4332933;32;33909;-85
2022/12/15 14:50:00;;;;;;;;;;;;;;;5.51;66.98;99368.94;4360635;32;32750;-85
2022/12/15 14:52:42;;;;;;;3.62;3.35;;;;;;;5.64;66.82;99368.50;4360198;32;33038;-85
2022/12/15 14:55:25;;;;;;;5.90;5.40;;;;;;;5.80;66.44;99366.28;4347840;32;33323;-85
2022/12/15 14:57:53;;;;;;;;;;;;;;;5.48;67.81;99387.34;4360886;32;33952;-86